Time;durP1;ratioP1;P1;durP2;ratioP2;P2;SDS_P1;SDS_P2;PMS_P1;PMS_P2;Temp;Humidity;BMP_temperature;BMP_pressure;BME280_temperature;BME280_humidity;BME280_pressure;Samples;Min_cycle;Max_cycle;Signal;HPM_P1;HPM_P2
2022/05/02 00:00:14;;;;;;;5.68;5.18;;;;;;;;;;5102839;27;20546;-57
2022/05/02 00:02:54;;;;;;;6.47;5.72;;;;;;;;;;5083445;28;20593;-55
2022/05/02 00:05:34;;;;;;;5.63;5.22;;;;;;;;;;5103282;27;20549;-55
2022/05/02 00:08:14;;;;;;;5.45;4.93;;;;;;;;;;5103673;27;20538;-56
2022/05/02 00:10:54;;;;;;;4.90;4.55;;;;;;;;;;5123259;27;21332;-56
2022/05/02 00:13:34;;;;;;;5.07;4.68;;;;;;;;;;5103643;27;20549;-57
2022/05/02 00:16:13;;;;;;;5.53;5.03;;;;;;;;;;5078612;28;20611;-56
2022/05/02 00:18:53;;;;;;;5.07;4.68;;;;;;;;;;5103847;27;20545;-56
2022/05/02 00:21:33;;;;;;;5.03;4.72;;;;;;;;;;5082981;27;20570;-55
2022/05/02 00:24:14;;;;;;;5.03;4.63;;;;;;;;;;5081110;28;21035;-56
2022/05/02 00:26:54;;;;;;;5.55;5.15;;;;;;;;;;5073534;28;20685;-56
2022/05/02 00:29:34;;;;;;;5.25;4.95;;;;;;;;;;5102358;27;20615;-56
2022/05/02 00:32:14;;;;;;;5.85;5.45;;;;;;;;;;5136146;27;20542;-55
2022/05/02 00:34:54;;;;;;;5.20;4.90;;;;;;;;;;5144529;27;20599;-55
2022/05/02 00:37:34;;;;;;;5.80;5.35;;;;;;;;;;5083397;27;21086;-56
2022/05/02 00:40:14;;;;;;;6.03;4.95;;;;;;;;;;5122645;27;20544;-55
2022/05/02 00:42:55;;;;;;;5.60;5.20;;;;;;;;;;5144967;27;20599;-57
2022/05/02 00:45:38;;;;;;;6.43;5.85;;;;;;;;;;5124057;27;20551;-56
2022/05/02 00:48:18;;;;;;;5.82;5.43;;;;;;;;;;5124330;27;21057;-55
2022/05/02 00:50:58;;;;;;;6.05;5.65;;;;;;;;;;5082598;27;20550;-56
2022/05/02 00:53:37;;;;;;;5.53;5.13;;;;;;;;;;5124066;27;20551;-56
2022/05/02 00:56:18;;;;;;;5.70;5.20;;;;;;;;;;5078587;28;20565;-55
2022/05/02 00:58:59;;;;;;;5.18;4.78;;;;;;;;;;5103835;27;20545;-56
2022/05/02 01:01:38;;;;;;;4.57;4.22;;;;;;;;;;5102917;27;20591;-55
2022/05/02 01:04:18;;;;;;;5.65;5.15;;;;;;;;;;5103774;27;20878;-55
2022/05/02 01:07:11;;;;;;;5.75;5.25;;;;;;;;;;5112941;27;20561;-56
2022/05/02 01:09:52;;;;;;;6.00;5.60;;;;;;;;;;5102614;27;20919;-56
2022/05/02 01:12:32;;;;;;;5.63;5.22;;;;;;;;;;5104353;27;20921;-56
2022/05/02 01:15:12;;;;;;;6.38;5.80;;;;;;;;;;5103318;27;20550;-57
2022/05/02 01:17:52;;;;;;;7.13;5.15;;;;;;;;;;5083533;27;20923;-56
2022/05/02 01:20:32;;;;;;;5.78;5.38;;;;;;;;;;5143371;27;20543;-57
2022/05/02 01:23:13;;;;;;;5.70;5.30;;;;;;;;;;5143293;27;20611;-58
2022/05/02 01:25:53;;;;;;;5.65;5.25;;;;;;;;;;5073933;27;20620;-55
2022/05/02 01:28:33;;;;;;;6.25;5.13;;;;;;;;;;5083200;27;21217;-55
2022/05/02 01:31:13;;;;;;;6.78;5.53;;;;;;;;;;5122850;27;20544;-56
2022/05/02 01:33:53;;;;;;;5.95;5.45;;;;;;;;;;5103766;27;20674;-55
2022/05/02 01:36:34;;;;;;;5.70;4.80;;;;;;;;;;5083221;27;20620;-55
2022/05/02 01:39:14;;;;;;;5.53;5.13;;;;;;;;;;5133809;27;20609;-56
2022/05/02 01:41:53;;;;;;;5.30;5.00;;;;;;;;;;5083084;28;20560;-55
2022/05/02 01:44:34;;;;;;;6.03;5.53;;;;;;;;;;5094658;27;20545;-56
2022/05/02 01:47:15;;;;;;;5.40;5.00;;;;;;;;;;5103384;27;20603;-55
2022/05/02 01:49:55;;;;;;;6.05;5.55;;;;;;;;;;5081697;28;20612;-56
2022/05/02 01:52:34;;;;;;;5.65;5.25;;;;;;;;;;5082969;28;20601;-55
2022/05/02 01:55:14;;;;;;;5.47;5.07;;;;;;;;;;5082631;27;20546;-56
2022/05/02 01:57:54;;;;;;;5.55;5.15;;;;;;;;;;5083302;27;20588;-56
2022/05/02 02:00:34;;;;;;;5.38;4.97;;;;;;;;;;5139380;27;20610;-56
2022/05/02 02:03:14;;;;;;;5.90;5.50;;;;;;;;;;5103467;27;20595;-55
2022/05/02 02:05:54;;;;;;;5.82;5.43;;;;;;;;;;5123883;27;20555;-55
2022/05/02 02:08:37;;;;;;;6.80;5.80;;;;;;;;;;5136197;27;20588;-56
2022/05/02 02:11:18;;;;;;;5.47;5.07;;;;;;;;;;5122753;27;21052;-56
2022/05/02 02:13:58;;;;;;;5.75;5.35;;;;;;;;;;5132352;27;20543;-56
2022/05/02 02:16:38;;;;;;;6.05;5.30;;;;;;;;;;5115962;27;20561;-55
2022/05/02 02:19:17;;;;;;;5.53;5.07;;;;;;;;;;5082680;28;20568;-56
2022/05/02 02:22:16;;;;;;;5.80;5.32;;;;;;;;;;5123653;27;20552;-56
2022/05/02 02:24:56;;;;;;;5.05;4.65;;;;;;;;;;5141213;27;20538;-54
2022/05/02 02:27:36;;;;;;;5.88;5.32;;;;;;;;;;5083123;27;20576;-55
2022/05/02 02:30:16;;;;;;;4.47;4.18;;;;;;;;;;5122876;27;20544;-56
2022/05/02 02:32:57;;;;;;;5.45;5.03;;;;;;;;;;5140577;27;21203;-55
2022/05/02 02:35:37;;;;;;;4.95;4.55;;;;;;;;;;5103604;27;20670;-58
2022/05/02 02:38:17;;;;;;;5.45;4.95;;;;;;;;;;5104632;27;20836;-55
2022/05/02 02:40:57;;;;;;;5.22;4.93;;;;;;;;;;5135256;27;21047;-55
2022/05/02 02:43:37;;;;;;;9.40;5.00;;;;;;;;;;5083121;28;20680;-56
2022/05/02 02:46:17;;;;;;;4.75;4.32;;;;;;;;;;5146719;27;20550;-55
2022/05/02 02:48:56;;;;;;;5.40;5.00;;;;;;;;;;5144733;27;20550;-55
2022/05/02 02:51:36;;;;;;;6.80;5.53;;;;;;;;;;5102903;27;20657;-55
2022/05/02 02:54:16;;;;;;;5.38;4.97;;;;;;;;;;5143388;27;21071;-56
2022/05/02 02:56:56;;;;;;;5.40;5.00;;;;;;;;;;5144446;27;20550;-57
2022/05/02 02:59:36;;;;;;;5.22;4.80;;;;;;;;;;5123373;27;20848;-57
2022/05/02 03:02:16;;;;;;;4.72;4.38;;;;;;;;;;5103551;27;20537;-56
2022/05/02 03:07:53;;;;;;;4.68;4.38;;;;;;;;;;5144511;27;20558;-56
2022/05/02 03:10:33;;;;;;;5.35;4.95;;;;;;;;;;5101371;27;20595;-57
2022/05/02 03:13:12;;;;;;;5.57;5.13;;;;;;;;;;5103109;27;20549;-56
2022/05/02 03:15:52;;;;;;;5.15;4.20;;;;;;;;;;5127482;27;20621;-55
2022/05/02 03:18:34;;;;;;;4.80;4.47;;;;;;;;;;5140958;27;20545;-55
2022/05/02 03:21:13;;;;;;;4.55;4.25;;;;;;;;;;5147204;27;20537;-55
2022/05/02 03:23:53;;;;;;;4.55;4.25;;;;;;;;;;5100783;27;20622;-57
2022/05/02 03:26:33;;;;;;;4.85;4.50;;;;;;;;;;5081035;27;20567;-56
2022/05/02 03:29:13;;;;;;;4.15;3.85;;;;;;;;;;5101919;27;20595;-55
2022/05/02 03:31:53;;;;;;;4.95;4.55;;;;;;;;;;5108106;27;20546;-56
2022/05/02 03:34:33;;;;;;;4.20;3.90;;;;;;;;;;5081924;27;20556;-56
2022/05/02 03:37:12;;;;;;;5.07;4.68;;;;;;;;;;5069740;28;20570;-57
2022/05/02 03:39:52;;;;;;;5.13;4.38;;;;;;;;;;5081577;27;20565;-56
2022/05/02 03:42:33;;;;;;;5.00;4.70;;;;;;;;;;5153792;27;20535;-55
2022/05/02 03:45:14;;;;;;;4.50;4.10;;;;;;;;;;5102764;27;20553;-55
2022/05/02 03:47:53;;;;;;;4.70;4.18;;;;;;;;;;5103832;27;20615;-56
2022/05/02 03:50:33;;;;;;;4.30;3.92;;;;;;;;;;5122835;27;21107;-56
2022/05/02 03:53:15;;;;;;;5.00;4.60;;;;;;;;;;5124021;27;21061;-57
2022/05/02 03:55:54;;;;;;;5.25;4.70;;;;;;;;;;5101461;27;20491;-54
2022/05/02 03:58:34;;;;;;;4.10;3.83;;;;;;;;;;5083535;27;20569;-56
2022/05/02 04:01:14;;;;;;;4.30;4.00;;;;;;;;;;5082132;27;20589;-56
2022/05/02 04:03:54;;;;;;;3.80;3.60;;;;;;;;;;5128970;27;20540;-56
2022/05/02 04:06:34;;;;;;;3.95;3.55;;;;;;;;;;5093545;22;20582;-56
2022/05/02 04:09:14;;;;;;;3.58;3.38;;;;;;;;;;5082865;28;20683;-56
2022/05/02 04:11:53;;;;;;;4.07;3.78;;;;;;;;;;5144732;27;21300;-57
2022/05/02 04:14:35;;;;;;;4.18;3.55;;;;;;;;;;5082888;27;20547;-56
2022/05/02 04:17:15;;;;;;;4.10;3.80;;;;;;;;;;5123590;27;20564;-56
2022/05/02 04:19:54;;;;;;;3.78;3.47;;;;;;;;;;5143960;27;20534;-56
2022/05/02 04:22:34;;;;;;;4.25;3.85;;;;;;;;;;5143012;27;21086;-57
2022/05/02 04:25:15;;;;;;;6.53;4.30;;;;;;;;;;5080688;27;20949;-57
2022/05/02 04:27:54;;;;;;;4.60;4.20;;;;;;;;;;5102424;27;20609;-57
2022/05/02 04:30:34;;;;;;;5.13;4.70;;;;;;;;;;5118000;27;20543;-57
2022/05/02 04:33:14;;;;;;;5.30;4.80;;;;;;;;;;5131398;27;21080;-57
2022/05/02 04:35:54;;;;;;;5.68;5.28;;;;;;;;;;5081059;27;20565;-57
2022/05/02 04:38:33;;;;;;;4.75;4.45;;;;;;;;;;5143461;27;20585;-57
2022/05/02 04:41:14;;;;;;;4.53;4.22;;;;;;;;;;5080765;27;20591;-57
2022/05/02 04:43:55;;;;;;;5.43;5.03;;;;;;;;;;5133479;27;21217;-57
2022/05/02 04:46:34;;;;;;;5.05;4.65;;;;;;;;;;5083474;28;21204;-57
2022/05/02 04:49:14;;;;;;;5.15;4.75;;;;;;;;;;5103377;27;20545;-57
2022/05/02 04:51:54;;;;;;;5.18;4.78;;;;;;;;;;5083600;28;20550;-56
2022/05/02 04:54:34;;;;;;;5.22;4.72;;;;;;;;;;5144404;27;20543;-56
2022/05/02 04:57:14;;;;;;;5.32;4.93;;;;;;;;;;5148604;27;20547;-57
2022/05/02 04:59:53;;;;;;;6.68;6.07;;;;;;;;;;5103077;27;21198;-57
2022/05/02 05:02:34;;;;;;;7.60;7.00;;;;;;;;;;5140262;27;20669;-57
2022/05/02 05:05:16;;;;;;;9.23;8.55;;;;;;;;;;5082912;28;20676;-56
2022/05/02 05:07:56;;;;;;;5.80;5.30;;;;;;;;;;5082761;28;20555;-57
2022/05/02 05:10:44;;;;;;;5.97;5.47;;;;;;;;;;5150278;27;20535;-56
2022/05/02 05:13:26;;;;;;;6.22;5.72;;;;;;;;;;5101986;27;20550;-57
2022/05/02 05:19:21;;;;;;;6.78;6.28;;;;;;;;;;5083414;28;20605;-57
2022/05/02 05:22:06;;;;;;;5.90;5.50;;;;;;;;;;5082202;28;21147;-57
2022/05/02 05:24:57;;;;;;;6.38;5.97;;;;;;;;;;5145376;27;20592;-57
2022/05/02 05:27:54;;;;;;;6.88;6.28;;;;;;;;;;5143856;27;20550;-56
2022/05/02 05:30:38;;;;;;;6.45;5.93;;;;;;;;;;5118638;27;20663;-57
2022/05/02 05:33:23;;;;;;;6.60;6.10;;;;;;;;;;5137699;27;20538;-56
2022/05/02 05:36:08;;;;;;;9.05;7.07;;;;;;;;;;5083569;28;20807;-56
2022/05/02 05:38:51;;;;;;;8.18;6.90;;;;;;;;;;5083438;27;20555;-56
2022/05/02 05:41:37;;;;;;;6.93;6.43;;;;;;;;;;5144125;27;20542;-56
2022/05/02 05:44:35;;;;;;;6.15;5.75;;;;;;;;;;5083220;27;20565;-57
2022/05/02 05:47:24;;;;;;;7.13;6.63;;;;;;;;;;5076016;28;20584;-56
2022/05/02 05:50:11;;;;;;;8.38;7.70;;;;;;;;;;5144026;27;20902;-56
2022/05/02 05:52:57;;;;;;;8.10;7.30;;;;;;;;;;5103714;27;20537;-56
2022/05/02 05:56:06;;;;;;;7.47;6.78;;;;;;;;;;5123933;27;20540;-56
2022/05/02 05:58:53;;;;;;;11.52;7.95;;;;;;;;;;5124117;27;20563;-56
2022/05/02 06:01:40;;;;;;;9.32;6.95;;;;;;;;;;5123145;27;20552;-57
2022/05/02 06:04:21;;;;;;;10.43;7.28;;;;;;;;;;5083303;28;20554;-56
2022/05/02 06:07:01;;;;;;;6.90;6.40;;;;;;;;;;5103924;27;20681;-54
2022/05/02 06:09:44;;;;;;;7.93;6.88;;;;;;;;;;5144442;27;20881;-56
2022/05/02 06:12:23;;;;;;;10.63;7.80;;;;;;;;;;5124482;27;20551;-56
2022/05/02 06:21:02;;;;;;;9.35;7.43;;;;;;;;;;5123197;27;20548;-56
2022/05/02 06:23:45;;;;;;;9.80;7.97;;;;;;;;;;5101801;27;20542;-56
2022/05/02 06:26:24;;;;;;;7.50;6.80;;;;;;;;;;5083425;28;20547;-56
2022/05/02 06:29:04;;;;;;;17.48;7.93;;;;;;;;;;5150085;27;20608;-56
2022/05/02 06:31:45;;;;;;;7.72;6.43;;;;;;;;;;5103280;27;20549;-56
2022/05/02 06:34:29;;;;;;;11.35;7.03;;;;;;;;;;5123834;27;20876;-56
2022/05/02 06:37:24;;;;;;;8.55;7.85;;;;;;;;;;5076683;27;20693;-56
2022/05/02 06:40:06;;;;;;;9.30;7.97;;;;;;;;;;5082263;28;20608;-56
2022/05/02 06:42:48;;;;;;;8.13;7.35;;;;;;;;;;5145111;27;20988;-56
2022/05/02 06:45:39;;;;;;;6.78;6.30;;;;;;;;;;5124599;27;21107;-56
2022/05/02 06:48:33;;;;;;;9.48;7.40;;;;;;;;;;5124718;27;20554;-56
2022/05/02 06:51:16;;;;;;;6.43;6.03;;;;;;;;;;5122006;27;20551;-56
2022/05/02 06:54:06;;;;;;;6.90;6.30;;;;;;;;;;5082389;28;20579;-56
2022/05/02 06:56:48;;;;;;;7.53;7.00;;;;;;;;;;5100547;27;20636;-56
2022/05/02 06:59:39;;;;;;;7.45;6.75;;;;;;;;;;5144080;27;20908;-56
2022/05/02 07:02:34;;;;;;;7.47;6.75;;;;;;;;;;5103329;27;20948;-56
2022/05/02 07:05:21;;;;;;;13.57;11.90;;;;;;;;;;5123383;27;20813;-57
2022/05/02 07:08:04;;;;;;;7.20;6.65;;;;;;;;;;5090166;27;20613;-56
2022/05/02 07:10:44;;;;;;;7.10;6.57;;;;;;;;;;5082596;27;20589;-56
2022/05/02 07:13:30;;;;;;;8.45;6.55;;;;;;;;;;5083387;28;20691;-56
2022/05/02 07:16:16;;;;;;;6.60;6.03;;;;;;;;;;5084306;27;20899;-57
2022/05/02 07:19:00;;;;;;;6.00;5.50;;;;;;;;;;5104051;27;20560;-56
2022/05/02 07:21:47;;;;;;;6.75;6.20;;;;;;;;;;5145038;27;20670;-56
2022/05/02 07:24:53;;;;;;;9.55;6.57;;;;;;;;;;5103653;27;20546;-56
2022/05/02 07:27:38;;;;;;;7.80;5.85;;;;;;;;;;5114540;27;20585;-56
2022/05/02 07:30:21;;;;;;;7.50;6.07;;;;;;;;;;5144514;27;20542;-57
2022/05/02 07:33:03;;;;;;;7.30;6.63;;;;;;;;;;5066237;28;20686;-56
2022/05/02 07:35:44;;;;;;;6.72;6.18;;;;;;;;;;5083256;28;20564;-56
2022/05/02 07:38:25;;;;;;;6.70;5.78;;;;;;;;;;5153197;27;20669;-56
2022/05/02 07:41:25;;;;;;;6.05;5.45;;;;;;;;;;5082127;28;21106;-57
2022/05/02 07:44:05;;;;;;;10.73;5.80;;;;;;;;;;5123776;27;21049;-56
2022/05/02 07:46:45;;;;;;;5.75;4.85;;;;;;;;;;5101198;27;20613;-57
2022/05/02 07:49:27;;;;;;;4.78;4.00;;;;;;;;;;5081996;27;20564;-56
2022/05/02 07:52:09;;;;;;;6.75;4.35;;;;;;;;;;5144911;27;20550;-56
2022/05/02 07:54:49;;;;;;;4.50;4.20;;;;;;;;;;5103681;27;21050;-56
2022/05/02 07:57:29;;;;;;;4.22;3.83;;;;;;;;;;5074678;27;21194;-58
2022/05/02 08:00:12;;;;;;;4.45;4.05;;;;;;;;;;5102880;27;20589;-55
2022/05/02 08:02:53;;;;;;;3.90;3.60;;;;;;;;;;5083793;28;20684;-59
2022/05/02 08:05:34;;;;;;;3.40;3.17;;;;;;;;;;5083527;27;20997;-57
2022/05/02 08:08:19;;;;;;;4.45;3.78;;;;;;;;;;5108498;27;20626;-57
2022/05/02 08:11:05;;;;;;;3.92;3.63;;;;;;;;;;5082503;27;20568;-58
2022/05/02 08:13:53;;;;;;;4.68;4.07;;;;;;;;;;5084014;27;20551;-55
2022/05/02 08:16:34;;;;;;;4.93;4.20;;;;;;;;;;5082452;28;20554;-56
2022/05/02 08:19:22;;;;;;;4.25;3.95;;;;;;;;;;5103102;27;20884;-57
2022/05/02 08:28:10;;;;;;;4.10;3.70;;;;;;;;;;5068645;28;20646;-56
2022/05/02 08:30:58;;;;;;;4.22;3.92;;;;;;;;;;5102827;27;20572;-56
2022/05/02 08:33:42;;;;;;;4.45;3.55;;;;;;;;;;5144722;27;20527;-57
2022/05/02 08:36:28;;;;;;;4.95;3.65;;;;;;;;;;5083431;28;20664;-57
2022/05/02 08:39:10;;;;;;;5.22;3.88;;;;;;;;;;5082645;27;20588;-57
2022/05/02 08:42:07;;;;;;;3.40;3.10;;;;;;;;;;5123841;27;20750;-56
2022/05/02 08:45:02;;;;;;;5.78;3.30;;;;;;;;;;5083100;27;20568;-56
2022/05/02 08:47:58;;;;;;;4.72;4.00;;;;;;;;;;5072914;27;20579;-57
2022/05/02 08:50:47;;;;;;;3.55;3.28;;;;;;;;;;5082018;28;20676;-56
2022/05/02 08:53:41;;;;;;;3.97;2.72;;;;;;;;;;5082621;27;20684;-56
2022/05/02 08:56:29;;;;;;;3.78;3.53;;;;;;;;;;5103767;27;20670;-56
2022/05/02 08:59:22;;;;;;;3.78;3.47;;;;;;;;;;5102874;27;20925;-57
2022/05/02 09:02:17;;;;;;;4.25;3.13;;;;;;;;;;5083147;27;20539;-56
2022/05/02 09:05:21;;;;;;;3.72;3.38;;;;;;;;;;5144524;27;20547;-56
2022/05/02 09:08:15;;;;;;;3.22;3.03;;;;;;;;;;5069885;27;20622;-57
2022/05/02 09:11:09;;;;;;;4.53;3.47;;;;;;;;;;5082372;28;20664;-56
2022/05/02 09:14:03;;;;;;;4.05;2.95;;;;;;;;;;5103687;27;21074;-56
2022/05/02 09:16:51;;;;;;;4.13;3.55;;;;;;;;;;5101281;27;20619;-55
2022/05/02 09:19:45;;;;;;;3.58;3.28;;;;;;;;;;5082633;28;20589;-55
2022/05/02 09:22:47;;;;;;;3.15;2.85;;;;;;;;;;5101072;27;21029;-55
2022/05/02 09:25:35;;;;;;;3.13;2.92;;;;;;;;;;5083082;27;20555;-55
2022/05/02 09:28:19;;;;;;;3.40;3.17;;;;;;;;;;5067805;27;20557;-56
2022/05/02 09:31:10;;;;;;;3.35;3.15;;;;;;;;;;5143761;27;21075;-56
2022/05/02 09:34:05;;;;;;;3.63;2.67;;;;;;;;;;5123682;27;21121;-56
2022/05/02 09:36:45;;;;;;;3.20;3.00;;;;;;;;;;5100928;27;20548;-56
2022/05/02 09:39:26;;;;;;;3.50;3.20;;;;;;;;;;5103208;27;21158;-56
2022/05/02 09:42:11;;;;;;;2.95;2.55;;;;;;;;;;5083260;27;21128;-55
2022/05/02 09:51:14;;;;;;;3.03;2.45;;;;;;;;;;5082414;28;20597;-56
2022/05/02 09:53:57;;;;;;;5.25;2.83;;;;;;;;;;5083502;28;20601;-57
2022/05/02 09:56:44;;;;;;;3.47;3.17;;;;;;;;;;5102041;27;20538;-57
2022/05/02 09:59:26;;;;;;;7.55;3.22;;;;;;;;;;5123370;27;21053;-56
2022/05/02 10:02:07;;;;;;;2.88;2.58;;;;;;;;;;5144566;27;20600;-56
2022/05/02 10:04:49;;;;;;;2.70;2.50;;;;;;;;;;5124082;27;20544;-56
2022/05/02 10:07:29;;;;;;;4.55;2.90;;;;;;;;;;5094782;27;20863;-55
2022/05/02 10:10:10;;;;;;;3.50;2.70;;;;;;;;;;5102694;27;20949;-56
2022/05/02 10:12:54;;;;;;;3.28;2.97;;;;;;;;;;5124299;27;20540;-57
2022/05/02 10:15:47;;;;;;;3.22;2.88;;;;;;;;;;5103521;27;20942;-56
2022/05/02 10:18:36;;;;;;;2.17;2.03;;;;;;;;;;5085984;27;20608;-56
2022/05/02 10:21:19;;;;;;;3.08;2.75;;;;;;;;;;5102472;27;20891;-57
2022/05/02 10:24:08;;;;;;;3.22;2.92;;;;;;;;;;5114261;27;20553;-57
2022/05/02 10:26:52;;;;;;;3.28;2.95;;;;;;;;;;5148715;27;20549;-56
2022/05/02 10:29:49;;;;;;;5.22;2.92;;;;;;;;;;5102636;27;20677;-56
2022/05/02 10:32:38;;;;;;;3.63;3.28;;;;;;;;;;5144508;27;20534;-57
2022/05/02 10:35:20;;;;;;;3.15;2.95;;;;;;;;;;5083114;27;20560;-56
2022/05/02 10:38:04;;;;;;;3.30;2.65;;;;;;;;;;5069814;28;20611;-56
2022/05/02 10:40:46;;;;;;;4.22;3.05;;;;;;;;;;5081978;28;20624;-56
2022/05/02 10:43:27;;;;;;;3.38;3.17;;;;;;;;;;5123955;27;20884;-56
2022/05/02 10:46:11;;;;;;;3.03;2.72;;;;;;;;;;5083414;28;20560;-57
2022/05/02 10:49:00;;;;;;;3.15;2.58;;;;;;;;;;5063645;28;20670;-56
2022/05/02 10:51:49;;;;;;;2.83;2.60;;;;;;;;;;5082677;28;20559;-56
2022/05/02 10:54:39;;;;;;;2.60;2.40;;;;;;;;;;5144481;27;20671;-57
2022/05/02 10:57:25;;;;;;;2.58;2.38;;;;;;;;;;5127334;27;20554;-56
2022/05/02 11:00:09;;;;;;;3.15;2.20;;;;;;;;;;5100131;27;20725;-56
2022/05/02 11:03:16;;;;;;;2.40;2.20;;;;;;;;;;5082188;27;20568;-57
2022/05/02 11:06:07;;;;;;;2.40;2.17;;;;;;;;;;5102121;27;21025;-56
2022/05/02 11:08:49;;;;;;;2.35;2.15;;;;;;;;;;5061970;28;20689;-56
2022/05/02 11:11:38;;;;;;;2.60;2.40;;;;;;;;;;5101330;27;20674;-56
2022/05/02 11:14:28;;;;;;;2.70;2.50;;;;;;;;;;5081166;27;21010;-57
2022/05/02 11:17:16;;;;;;;2.60;2.40;;;;;;;;;;5074688;27;20581;-57
2022/05/02 11:23:07;;;;;;;2.30;2.10;;;;;;;;;;5102078;27;20638;-54
2022/05/02 11:25:54;;;;;;;2.13;2.00;;;;;;;;;;5103431;27;20624;-56
2022/05/02 11:28:38;;;;;;;2.15;2.05;;;;;;;;;;5124396;27;20703;-57
2022/05/02 11:31:23;;;;;;;2.60;2.03;;;;;;;;;;5143456;27;20673;-56
2022/05/02 11:34:04;;;;;;;1.85;1.75;;;;;;;;;;5121147;27;20540;-56
2022/05/02 11:36:46;;;;;;;1.95;1.58;;;;;;;;;;5080708;28;20638;-56
2022/05/02 11:39:37;;;;;;;2.10;1.90;;;;;;;;;;5093202;22;20661;-57
2022/05/02 11:42:18;;;;;;;2.33;2.13;;;;;;;;;;5102763;27;20542;-57
2022/05/02 11:45:06;;;;;;;2.28;2.17;;;;;;;;;;5083343;28;20558;-57
2022/05/02 11:48:04;;;;;;;2.25;2.15;;;;;;;;;;5144753;27;20940;-57
2022/05/02 11:50:46;;;;;;;2.47;2.28;;;;;;;;;;5082181;28;20597;-57
2022/05/02 11:53:30;;;;;;;2.33;2.13;;;;;;;;;;5103241;27;21419;-55
2022/05/02 11:56:10;;;;;;;3.45;2.38;;;;;;;;;;5103899;27;20894;-56
2022/05/02 11:58:53;;;;;;;2.28;2.10;;;;;;;;;;5097913;27;20690;-57
2022/05/02 12:01:37;;;;;;;1.83;1.70;;;;;;;;;;5123570;27;20577;-57
2022/05/02 12:04:20;;;;;;;2.45;1.80;;;;;;;;;;5103013;27;20548;-57
2022/05/02 12:07:05;;;;;;;2.83;2.05;;;;;;;;;;5083073;27;20555;-57
2022/05/02 12:09:45;;;;;;;2.42;2.22;;;;;;;;;;5068327;27;20579;-57
2022/05/02 12:12:25;;;;;;;2.58;1.80;;;;;;;;;;5082776;28;20671;-57
2022/05/02 12:15:08;;;;;;;2.50;2.17;;;;;;;;;;5123528;27;20583;-57
2022/05/02 12:17:55;;;;;;;3.60;1.55;;;;;;;;;;5103628;27;20596;-57
2022/05/02 12:20:35;;;;;;;3.65;1.80;;;;;;;;;;5103236;27;20627;-57
2022/05/02 12:23:19;;;;;;;2.90;2.05;;;;;;;;;;5081655;28;20569;-57
2022/05/02 12:25:59;;;;;;;3.08;2.30;;;;;;;;;;5145152;27;20673;-57
2022/05/02 12:28:42;;;;;;;2.17;2.08;;;;;;;;;;5079773;28;20988;-57
2022/05/02 12:31:25;;;;;;;3.28;1.95;;;;;;;;;;5082568;27;20543;-57
2022/05/02 12:34:05;;;;;;;4.43;2.17;;;;;;;;;;5144552;27;20665;-57
2022/05/02 12:36:54;;;;;;;3.38;2.08;;;;;;;;;;5095548;27;20691;-57
2022/05/02 12:39:36;;;;;;;3.95;2.00;;;;;;;;;;5101709;27;20553;-57
2022/05/02 12:42:17;;;;;;;1.92;1.80;;;;;;;;;;5103181;27;20655;-56
2022/05/02 12:45:02;;;;;;;3.00;2.00;;;;;;;;;;5081919;28;20589;-56
2022/05/02 12:47:43;;;;;;;2.28;2.08;;;;;;;;;;5143456;27;20542;-57
2022/05/02 12:50:25;;;;;;;1.83;1.73;;;;;;;;;;5061964;27;21060;-56
2022/05/02 12:53:06;;;;;;;1.75;1.65;;;;;;;;;;5122274;27;20605;-57
2022/05/02 12:55:47;;;;;;;1.98;1.85;;;;;;;;;;5081923;28;20676;-57
2022/05/02 13:01:25;;;;;;;2.83;2.15;;;;;;;;;;5120392;27;20541;-57
2022/05/02 13:04:06;;;;;;;1.92;1.83;;;;;;;;;;5081903;27;20551;-57
2022/05/02 13:06:49;;;;;;;1.88;1.77;;;;;;;;;;5102618;27;20549;-56
2022/05/02 13:09:37;;;;;;;2.03;1.83;;;;;;;;;;5089927;27;20566;-57
2022/05/02 13:12:17;;;;;;;1.90;1.70;;;;;;;;;;5144895;27;20571;-57
2022/05/02 13:15:01;;;;;;;2.00;1.80;;;;;;;;;;5101930;27;20599;-57
2022/05/02 13:17:41;;;;;;;2.55;1.77;;;;;;;;;;5102077;27;21066;-56
2022/05/02 13:20:21;;;;;;;3.70;2.83;;;;;;;;;;5123272;27;20645;-57
2022/05/02 13:23:07;;;;;;;2.28;2.08;;;;;;;;;;5100431;27;20549;-56
2022/05/02 13:26:06;;;;;;;2.28;2.00;;;;;;;;;;5102661;27;20899;-57
2022/05/02 13:28:59;;;;;;;2.58;1.77;;;;;;;;;;5118827;27;20548;-57
2022/05/02 13:31:47;;;;;;;2.38;2.00;;;;;;;;;;5082297;27;20545;-56
2022/05/02 13:34:36;;;;;;;1.80;1.70;;;;;;;;;;5144087;27;20680;-56
2022/05/02 13:37:26;;;;;;;5.18;2.00;;;;;;;;;;5143296;27;20646;-57
2022/05/02 13:40:08;;;;;;;2.80;1.98;;;;;;;;;;5123203;27;20552;-57
2022/05/02 13:42:55;;;;;;;5.97;2.28;;;;;;;;;;5103107;27;20550;-57
2022/05/02 13:45:38;;;;;;;4.80;2.20;;;;;;;;;;5083231;27;20553;-56
2022/05/02 13:48:27;;;;;;;2.97;1.85;;;;;;;;;;5144434;27;20539;-57
2022/05/02 13:51:09;;;;;;;2.05;1.85;;;;;;;;;;5122380;27;20641;-57
2022/05/02 13:53:51;;;;;;;3.08;2.88;;;;;;;;;;5124327;27;20548;-57
2022/05/02 13:56:37;;;;;;;2.85;2.30;;;;;;;;;;5083049;27;20964;-57
2022/05/02 13:59:20;;;;;;;2.47;2.35;;;;;;;;;;5082463;27;20912;-57
2022/05/02 14:02:02;;;;;;;5.72;2.47;;;;;;;;;;5083067;27;20554;-57
2022/05/02 14:04:46;;;;;;;4.03;2.25;;;;;;;;;;5103275;27;20538;-57
2022/05/02 14:07:27;;;;;;;1.88;1.77;;;;;;;;;;5103915;27;20572;-57
2022/05/02 14:10:09;;;;;;;2.60;2.42;;;;;;;;;;5082827;28;20605;-57
2022/05/02 14:12:49;;;;;;;2.65;1.70;;;;;;;;;;5138587;27;21099;-57
2022/05/02 14:15:33;;;;;;;4.20;2.00;;;;;;;;;;5103801;27;21023;-57
2022/05/02 14:18:17;;;;;;;2.58;2.00;;;;;;;;;;5082591;28;21052;-57
2022/05/02 14:21:01;;;;;;;1.88;1.77;;;;;;;;;;5081649;27;21089;-56
2022/05/02 14:23:48;;;;;;;2.22;1.90;;;;;;;;;;5081403;27;20552;-57
2022/05/02 14:26:29;;;;;;;2.90;2.70;;;;;;;;;;5123896;27;20683;-57
2022/05/02 14:29:11;;;;;;;2.70;2.50;;;;;;;;;;5116189;27;20739;-56
2022/05/02 14:32:02;;;;;;;2.35;2.22;;;;;;;;;;5082214;27;20555;-56
2022/05/02 14:34:43;;;;;;;1.95;1.83;;;;;;;;;;5130264;27;20540;-57
2022/05/02 14:37:23;;;;;;;2.85;2.65;;;;;;;;;;5157438;27;20541;-56
2022/05/02 14:40:03;;;;;;;2.67;2.47;;;;;;;;;;5155694;27;20890;-56
2022/05/02 14:42:43;;;;;;;3.28;2.95;;;;;;;;;;5151074;27;20545;-57
2022/05/02 14:45:23;;;;;;;3.08;2.78;;;;;;;;;;5081928;28;20672;-57
2022/05/02 14:48:03;;;;;;;3.33;3.13;;;;;;;;;;5131265;27;20664;-57
2022/05/02 14:50:44;;;;;;;3.78;3.40;;;;;;;;;;5082068;28;21060;-56
2022/05/02 14:53:26;;;;;;;66.43;18.45;;;;;;;;;;5102552;27;20542;-57
2022/05/02 14:56:10;;;;;;;12.40;5.30;;;;;;;;;;5129523;27;20609;-56
2022/05/02 14:58:54;;;;;;;8.57;5.72;;;;;;;;;;5105893;27;20605;-56
2022/05/02 15:01:36;;;;;;;5.20;4.25;;;;;;;;;;5080749;27;20536;-57
2022/05/02 15:04:20;;;;;;;8.73;2.90;;;;;;;;;;5123113;27;20691;-56
2022/05/02 15:07:01;;;;;;;2.80;2.60;;;;;;;;;;5095627;27;21081;-56
2022/05/02 15:12:50;;;;;;;2.70;2.45;;;;;;;;;;5076656;27;20565;-57
2022/05/02 15:15:51;;;;;;;3.22;2.92;;;;;;;;;;5102442;27;21066;-56
2022/05/02 15:19:33;;;;;;;3.75;3.45;;;;;;;;;;5065445;27;20549;-57
2022/05/02 15:21:50;;;;;;;4.32;3.63;;;;;;;;;;5082686;28;20579;-55
2022/05/02 15:24:51;;;;;;;4.10;3.63;;;;;;;;;;5102987;27;20573;-56
2022/05/02 15:36:47;;;;;;;4.47;4.18;;;;;;;;;;5123406;27;20548;-57
2022/05/02 15:39:31;;;;;;;3.33;3.10;;;;;;;;;;5115455;27;20591;-57
2022/05/02 15:42:16;;;;;;;3.63;3.38;;;;;;;;;;5130064;27;20544;-57
2022/05/02 15:44:57;;;;;;;3.60;3.35;;;;;;;;;;5149590;27;21055;-57
2022/05/02 15:47:38;;;;;;;3.72;3.53;;;;;;;;;;5103547;27;20677;-57
2022/05/02 15:50:21;;;;;;;3.97;3.72;;;;;;;;;;5116663;27;21145;-56
2022/05/02 15:53:02;;;;;;;4.60;3.65;;;;;;;;;;5148848;27;20534;-57
2022/05/02 15:55:57;;;;;;;2.97;2.70;;;;;;;;;;5082941;27;20605;-57
2022/05/02 15:58:58;;;;;;;3.30;3.10;;;;;;;;;;5078000;28;21244;-56
2022/05/02 16:01:54;;;;;;;3.38;2.95;;;;;;;;;;5127679;27;20784;-57
2022/05/02 16:04:36;;;;;;;3.20;3.00;;;;;;;;;;5103435;27;20665;-56
2022/05/02 16:10:31;;;;;;;3.67;3.40;;;;;;;;;;5091799;27;21240;-54
2022/05/02 16:13:11;;;;;;;3.38;2.83;;;;;;;;;;5081449;28;20687;-57
2022/05/02 16:15:52;;;;;;;6.18;5.57;;;;;;;;;;5083084;28;21117;-56
2022/05/02 16:18:35;;;;;;;3.60;3.38;;;;;;;;;;5107566;22;20595;-56
2022/05/02 16:21:16;;;;;;;4.07;3.80;;;;;;;;;;5122262;27;21065;-56
2022/05/02 16:23:59;;;;;;;3.65;3.45;;;;;;;;;;5082802;28;20965;-54
2022/05/02 16:26:42;;;;;;;3.88;3.60;;;;;;;;;;5103819;27;20542;-56
2022/05/02 16:29:23;;;;;;;3.97;3.67;;;;;;;;;;5079992;27;20600;-56
2022/05/02 16:32:03;;;;;;;3.60;3.30;;;;;;;;;;5083920;28;20659;-56
2022/05/02 16:34:47;;;;;;;4.20;3.40;;;;;;;;;;5083758;27;20565;-56
2022/05/02 16:37:33;;;;;;;8.05;7.45;;;;;;;;;;5146282;27;20551;-55
2022/05/02 16:40:16;;;;;;;8.80;7.97;;;;;;;;;;5102848;27;20623;-54
2022/05/02 16:43:01;;;;;;;7.55;6.88;;;;;;;;;;5122855;27;21078;-55
2022/05/02 16:45:41;;;;;;;8.55;7.65;;;;;;;;;;5082533;27;21352;-54
2022/05/02 16:48:21;;;;;;;8.93;8.15;;;;;;;;;;5102800;27;20697;-55
2022/05/02 16:51:00;;;;;;;7.43;6.85;;;;;;;;;;5082443;28;20547;-55
2022/05/02 16:53:41;;;;;;;6.85;5.78;;;;;;;;;;5138975;27;20540;-55
2022/05/02 16:56:23;;;;;;;7.60;7.00;;;;;;;;;;5083822;27;20539;-55
2022/05/02 16:59:04;;;;;;;8.95;7.38;;;;;;;;;;5091819;27;20617;-55
2022/05/02 17:01:44;;;;;;;4.68;4.30;;;;;;;;;;5118163;27;20550;-55
2022/05/02 17:04:24;;;;;;;4.00;3.70;;;;;;;;;;5104240;27;20669;-56
2022/05/02 17:07:05;;;;;;;5.18;4.72;;;;;;;;;;5107440;27;20957;-55